PWSweather.com
Personal Weather Stations
Station Observations

MakarauRodneyNZ

Lat: -36.52421, Lon: 174.47572

Elevation: 606

Station Type: Davis VP2

http://kaiparaweather.dynu.net/index.php

High Low Average
Temperature 62.2°F16.8°C 50.8°F10.4°C 56.4°F13.6°C
Dew Point 55.4°F13.0°C 49.2°F9.6°C 52.2°F11.2°C
Winds 6.9 mph 11.1 kmh Calm Calm 1.0 mph W1.6 kmh W
Wind Gusts 10.4 mph16.7 kmh -- 2.0 mph3.2 kmh
Humidity 94% 77% 86%
Pressure 30.12 in1020.0 mb 30.07 in1018.3 mb -
Precipitation 0.01 in0.3 mm - -
Hour Temp Dew Point Humidity Winds Wind Gusts Pressure Precip Precip Rate Daily Precip Total
12:00 AM 51.0°F10.6°C 48.4°F9.1°C 91% Calm Calm -- 30.05 in1017.6 mb - 0.00 in0.0 mm 0.00 in0.0 mm
12:10 AM 51.0°F10.6°C 48.5°F9.2°C 91% Calm Calm -- 30.05 in1017.6 mb - 0.00 in0.0 mm 0.00 in0.0 mm
12:20 AM 50.8°F10.4°C 48.3°F9.1°C 91% Calm Calm -- 30.05 in1017.6 mb - 0.00 in0.0 mm 0.00 in0.0 mm
12:30 AM 50.8°F10.4°C 48.3°F9.1°C 91% Calm Calm -- 30.05 in1017.6 mb - 0.00 in0.0 mm 0.00 in0.0 mm
12:40 AM 50.7°F10.4°C 48.2°F9.0°C 91% Calm Calm -- 30.05 in1017.6 mb - 0.00 in0.0 mm 0.00 in0.0 mm
12:50 AM 50.5°F10.3°C 48.0°F8.9°C 91% Calm Calm -- 30.05 in1017.6 mb - 0.00 in0.0 mm 0.00 in0.0 mm
01:00 AM 50.5°F10.3°C 48.0°F8.9°C 91% Calm Calm -- 30.05 in1017.6 mb - 0.00 in0.0 mm 0.00 in0.0 mm
01:10 AM 50.8°F10.4°C 48.3°F9.1°C 91% Calm Calm -- 30.05 in1017.6 mb - 0.00 in0.0 mm 0.00 in0.0 mm
01:20 AM 51.1°F10.6°C 48.6°F9.2°C 91% Calm Calm -- 30.05 in1017.6 mb - 0.00 in0.0 mm 0.00 in0.0 mm
01:30 AM 51.4°F10.8°C 48.6°F9.2°C 90% Calm Calm 3.5 mph5.6 kmh 30.05 in1017.6 mb - 0.00 in0.0 mm 0.00 in0.0 mm
01:40 AM 51.7°F10.9°C 48.6°F9.2°C 89% Calm Calm -- 30.05 in1017.6 mb - 0.00 in0.0 mm 0.00 in0.0 mm
01:50 AM 51.8°F11.0°C 48.7°F9.3°C 89% Calm Calm -- 30.05 in1017.6 mb - 0.00 in0.0 mm 0.00 in0.0 mm
02:00 AM 51.6°F10.9°C 48.1°F8.9°C 88% Calm Calm -- 30.05 in1017.6 mb - 0.00 in0.0 mm 0.00 in0.0 mm
02:10 AM 51.6°F10.9°C 48.1°F8.9°C 88% Calm Calm -- 30.04 in1017.3 mb - 0.00 in0.0 mm 0.00 in0.0 mm
02:20 AM 51.8°F11.0°C 48.4°F9.1°C 88% Calm Calm -- 30.04 in1017.3 mb - 0.00 in0.0 mm 0.00 in0.0 mm
02:30 AM 51.8°F11.0°C 48.4°F9.1°C 88% Calm Calm -- 30.04 in1017.3 mb - 0.00 in0.0 mm 0.00 in0.0 mm
02:40 AM 51.5°F10.8°C 48.1°F8.9°C 88% Calm Calm -- 30.04 in1017.3 mb - 0.00 in0.0 mm 0.00 in0.0 mm
02:50 AM 51.4°F10.8°C 47.9°F8.8°C 88% Calm Calm -- 30.03 in1016.9 mb - 0.00 in0.0 mm 0.00 in0.0 mm
03:00 AM 51.1°F10.6°C 47.7°F8.7°C 88% Calm Calm -- 30.03 in1016.9 mb - 0.00 in0.0 mm 0.00 in0.0 mm
03:10 AM 50.8°F10.4°C 47.4°F8.6°C 88% Calm Calm -- 30.03 in1016.9 mb - 0.00 in0.0 mm 0.00 in0.0 mm
03:20 AM 50.6°F10.3°C 47.5°F8.6°C 89% Calm Calm -- 30.03 in1016.9 mb - 0.00 in0.0 mm 0.00 in0.0 mm
03:30 AM 50.6°F10.3°C 47.5°F8.6°C 89% Calm Calm -- 30.04 in1017.3 mb - 0.00 in0.0 mm 0.00 in0.0 mm
03:40 AM 50.9°F10.5°C 48.1°F8.9°C 90% Calm Calm -- 30.04 in1017.3 mb - 0.00 in0.0 mm 0.00 in0.0 mm
03:50 AM 51.1°F10.6°C 48.3°F9.1°C 90% Calm Calm -- 30.04 in1017.3 mb - 0.00 in0.0 mm 0.00 in0.0 mm
04:00 AM 51.2°F10.7°C 48.3°F9.1°C 90% Calm Calm -- 30.04 in1017.3 mb - 0.00 in0.0 mm 0.00 in0.0 mm
04:10 AM 51.7°F10.9°C 48.8°F9.3°C 90% Calm Calm -- 30.04 in1017.3 mb - 0.00 in0.0 mm 0.00 in0.0 mm
04:20 AM 51.8°F11.0°C 48.7°F9.3°C 89% Calm Calm -- 30.04 in1017.3 mb - 0.00 in0.0 mm 0.00 in0.0 mm
04:30 AM 52.3°F11.3°C 49.2°F9.6°C 89% Calm Calm -- 30.04 in1017.3 mb - 0.00 in0.0 mm 0.00 in0.0 mm
04:40 AM 52.5°F11.4°C 49.4°F9.7°C 89% 1.2 mph ENE1.9 kmh ENE -- 30.04 in1017.3 mb - 0.00 in0.0 mm 0.00 in0.0 mm
04:50 AM 52.7°F11.5°C 49.2°F9.6°C 88% 1.2 mph ENE1.9 kmh ENE 3.5 mph5.6 kmh 30.04 in1017.3 mb - 0.00 in0.0 mm 0.00 in0.0 mm
05:00 AM 52.8°F11.6°C 49.3°F9.6°C 88% Calm Calm -- 30.04 in1017.3 mb - 0.00 in0.0 mm 0.00 in0.0 mm
05:10 AM 52.7°F11.5°C 49.2°F9.6°C 88% Calm Calm -- 30.05 in1017.6 mb - 0.00 in0.0 mm 0.00 in0.0 mm
05:20 AM 52.5°F11.4°C 48.8°F9.3°C 87% Calm Calm -- 30.05 in1017.6 mb - 0.00 in0.0 mm 0.00 in0.0 mm
05:30 AM 52.3°F11.3°C 48.6°F9.2°C 87% Calm Calm -- 30.05 in1017.6 mb - 0.00 in0.0 mm 0.00 in0.0 mm
05:40 AM 52.1°F11.2°C 48.7°F9.3°C 88% Calm Calm -- 30.05 in1017.6 mb - 0.00 in0.0 mm 0.00 in0.0 mm
05:50 AM 52.0°F11.1°C 48.5°F9.2°C 88% Calm Calm -- 30.05 in1017.6 mb - 0.00 in0.0 mm 0.00 in0.0 mm
06:00 AM 51.8°F11.0°C 48.7°F9.3°C 89% Calm Calm -- 30.06 in1017.9 mb - 0.00 in0.0 mm 0.00 in0.0 mm
06:10 AM 51.7°F10.9°C 48.6°F9.2°C 89% Calm Calm -- 30.06 in1017.9 mb - 0.00 in0.0 mm 0.00 in0.0 mm
06:20 AM 51.8°F11.0°C 48.7°F9.3°C 89% Calm Calm -- 30.06 in1017.9 mb - 0.00 in0.0 mm 0.00 in0.0 mm
06:30 AM 52.3°F11.3°C 49.2°F9.6°C 89% Calm Calm -- 30.06 in1017.9 mb - 0.00 in0.0 mm 0.00 in0.0 mm
06:40 AM 52.9°F11.6°C 49.7°F9.8°C 89% Calm Calm 1.2 mph1.9 kmh 30.06 in1017.9 mb - 0.00 in0.0 mm 0.00 in0.0 mm
06:50 AM 53.1°F11.7°C 49.6°F9.8°C 88% Calm Calm 2.3 mph3.7 kmh 30.06 in1017.9 mb - 0.00 in0.0 mm 0.00 in0.0 mm
07:00 AM 53.2°F11.8°C 49.4°F9.7°C 87% Calm Calm -- 30.07 in1018.3 mb - 0.00 in0.0 mm 0.00 in0.0 mm
07:10 AM 53.3°F11.8°C 49.5°F9.7°C 87% Calm Calm -- 30.07 in1018.3 mb - 0.00 in0.0 mm 0.00 in0.0 mm
07:20 AM 53.3°F11.8°C 49.5°F9.7°C 87% Calm Calm -- 30.07 in1018.3 mb - 0.00 in0.0 mm 0.00 in0.0 mm
07:30 AM 53.4°F11.9°C 49.6°F9.8°C 87% Calm Calm -- 30.07 in1018.3 mb - 0.00 in0.0 mm 0.00 in0.0 mm
07:40 AM 53.3°F11.8°C 49.5°F9.7°C 87% Calm Calm -- 30.08 in1018.6 mb - 0.00 in0.0 mm 0.00 in0.0 mm
07:50 AM 53.3°F11.8°C 49.6°F9.8°C 87% Calm Calm -- 30.08 in1018.6 mb - 0.00 in0.0 mm 0.00 in0.0 mm
08:00 AM 53.3°F11.8°C 49.5°F9.7°C 87% Calm Calm 3.5 mph5.6 kmh 30.08 in1018.6 mb - 0.00 in0.0 mm 0.00 in0.0 mm
08:10 AM 53.3°F11.8°C 49.6°F9.8°C 87% Calm Calm -- 30.08 in1018.6 mb - 0.00 in0.0 mm 0.00 in0.0 mm
08:20 AM 53.4°F11.9°C 49.6°F9.8°C 87% Calm Calm -- 30.09 in1019.0 mb - 0.00 in0.0 mm 0.00 in0.0 mm
08:30 AM 53.8°F12.1°C 50.0°F10.0°C 87% Calm Calm -- 30.09 in1019.0 mb - 0.00 in0.0 mm 0.00 in0.0 mm
08:40 AM 54.1°F12.3°C 50.3°F10.2°C 87% Calm Calm -- 30.09 in1019.0 mb - 0.00 in0.0 mm 0.00 in0.0 mm
08:50 AM 54.1°F12.3°C 50.3°F10.2°C 87% Calm Calm -- 30.09 in1019.0 mb - 0.00 in0.0 mm 0.00 in0.0 mm
09:00 AM 54.1°F12.3°C 50.3°F10.2°C 87% Calm Calm -- 30.09 in1019.0 mb - 0.00 in0.0 mm 0.00 in0.0 mm
09:10 AM 54.3°F12.4°C 50.8°F10.4°C 88% Calm Calm -- 30.09 in1019.0 mb - 0.00 in0.0 mm 0.00 in0.0 mm
09:20 AM 54.6°F12.6°C 51.1°F10.6°C 88% Calm Calm -- 30.10 in1019.3 mb - 0.00 in0.0 mm 0.00 in0.0 mm
09:30 AM 55.4°F13.0°C 51.6°F10.9°C 87% Calm Calm -- 30.10 in1019.3 mb - 0.00 in0.0 mm 0.00 in0.0 mm
09:40 AM 55.9°F13.3°C 51.5°F10.8°C 85% Calm Calm -- 30.10 in1019.3 mb - 0.00 in0.0 mm 0.00 in0.0 mm
09:50 AM 56.1°F13.4°C 51.0°F10.6°C 83% Calm Calm -- 30.10 in1019.3 mb - 0.00 in0.0 mm 0.00 in0.0 mm
10:00 AM 56.3°F13.5°C 51.2°F10.7°C 83% Calm Calm -- 30.11 in1019.6 mb - 0.00 in0.0 mm 0.00 in0.0 mm
10:10 AM 56.6°F13.7°C 51.5°F10.8°C 83% 1.2 mph NNW1.9 kmh NNW 3.5 mph5.6 kmh 30.11 in1019.6 mb - 0.00 in0.0 mm 0.00 in0.0 mm
10:20 AM 57.0°F13.9°C 51.6°F10.9°C 82% 1.2 mph NNW1.9 kmh NNW -- 30.11 in1019.6 mb - 0.00 in0.0 mm 0.00 in0.0 mm
10:30 AM 57.2°F14.0°C 52.1°F11.2°C 83% Calm Calm -- 30.11 in1019.6 mb - 0.00 in0.0 mm 0.00 in0.0 mm
10:40 AM 57.6°F14.2°C 52.1°F11.2°C 82% Calm Calm -- 30.11 in1019.6 mb - 0.00 in0.0 mm 0.00 in0.0 mm
10:50 AM 58.6°F14.8°C 53.1°F11.7°C 82% Calm Calm -- 30.11 in1019.6 mb - 0.00 in0.0 mm 0.00 in0.0 mm
11:00 AM 59.3°F15.2°C 53.1°F11.7°C 80% 1.2 mph NW1.9 kmh NW 3.5 mph5.6 kmh 30.12 in1020.0 mb - 0.00 in0.0 mm 0.00 in0.0 mm
11:10 AM 59.7°F15.4°C 53.5°F11.9°C 80% 2.3 mph NW3.7 kmh NW 3.5 mph5.6 kmh 30.12 in1020.0 mb - 0.00 in0.0 mm 0.00 in0.0 mm
11:20 AM 59.5°F15.3°C 53.3°F11.8°C 80% 3.5 mph NNW5.6 kmh NNW 5.8 mph9.3 kmh 30.12 in1020.0 mb - 0.00 in0.0 mm 0.00 in0.0 mm
11:30 AM 59.3°F15.2°C 53.8°F12.1°C 82% Calm Calm 1.2 mph1.9 kmh 30.11 in1019.6 mb - 0.00 in0.0 mm 0.00 in0.0 mm
11:40 AM 59.8°F15.4°C 54.6°F12.6°C 83% 2.3 mph NNW3.7 kmh NNW 5.8 mph9.3 kmh 30.11 in1019.6 mb - 0.00 in0.0 mm 0.00 in0.0 mm
11:50 AM 60.0°F15.6°C 54.5°F12.5°C 82% 4.6 mph WSW7.4 kmh WSW 5.8 mph9.3 kmh 30.10 in1019.3 mb - 0.00 in0.0 mm 0.00 in0.0 mm
12:00 PM 59.9°F15.5°C 54.4°F12.4°C 82% 3.5 mph N5.6 kmh N 8.1 mph13.0 kmh 30.10 in1019.3 mb - 0.00 in0.0 mm 0.00 in0.0 mm
12:10 PM 59.6°F15.3°C 53.8°F12.1°C 81% Calm Calm 2.3 mph3.7 kmh 30.10 in1019.3 mb - 0.00 in0.0 mm 0.00 in0.0 mm
12:20 PM 59.4°F15.2°C 53.6°F12.0°C 81% 3.5 mph NNW5.6 kmh NNW 4.6 mph7.4 kmh 30.09 in1019.0 mb - 0.00 in0.0 mm 0.00 in0.0 mm
12:30 PM 59.5°F15.3°C 54.0°F12.2°C 82% 1.2 mph NW1.9 kmh NW 1.2 mph1.9 kmh 30.09 in1019.0 mb - 0.00 in0.0 mm 0.00 in0.0 mm
12:40 PM 59.4°F15.2°C 53.9°F12.2°C 82% 1.2 mph NW1.9 kmh NW -- 30.09 in1019.0 mb - 0.00 in0.0 mm 0.00 in0.0 mm
12:50 PM 59.7°F15.4°C 53.9°F12.2°C 81% Calm Calm -- 30.08 in1018.6 mb - 0.00 in0.0 mm 0.00 in0.0 mm
01:00 PM 60.1°F15.6°C 53.9°F12.2°C 80% 5.8 mph W9.3 kmh W 8.1 mph13.0 kmh 30.09 in1019.0 mb - 0.00 in0.0 mm 0.00 in0.0 mm
01:10 PM 60.1°F15.6°C 53.6°F12.0°C 79% 3.5 mph WSW5.6 kmh WSW 4.6 mph7.4 kmh 30.09 in1019.0 mb - 0.00 in0.0 mm 0.00 in0.0 mm
01:20 PM 60.1°F15.6°C 54.2°F12.3°C 81% 1.2 mph WSW1.9 kmh WSW 2.3 mph3.7 kmh 30.08 in1018.6 mb - 0.00 in0.0 mm 0.00 in0.0 mm
01:30 PM 60.5°F15.8°C 54.6°F12.6°C 81% 4.6 mph WSW7.4 kmh WSW 4.6 mph7.4 kmh 30.08 in1018.6 mb - 0.00 in0.0 mm 0.00 in0.0 mm
01:40 PM 61.0°F16.1°C 54.8°F12.7°C 80% 2.3 mph WSW3.7 kmh WSW 5.8 mph9.3 kmh 30.08 in1018.6 mb - 0.00 in0.0 mm 0.00 in0.0 mm
01:50 PM 61.0°F16.1°C 54.4°F12.4°C 79% 3.5 mph NW5.6 kmh NW 3.5 mph5.6 kmh 30.08 in1018.6 mb - 0.00 in0.0 mm 0.00 in0.0 mm
02:00 PM 61.2°F16.2°C 55.0°F12.8°C 80% 1.2 mph WSW1.9 kmh WSW 2.3 mph3.7 kmh 30.08 in1018.6 mb - 0.00 in0.0 mm 0.00 in0.0 mm
02:10 PM 61.6°F16.4°C 55.4°F13.0°C 80% 2.3 mph WSW3.7 kmh WSW 3.5 mph5.6 kmh 30.07 in1018.3 mb - 0.00 in0.0 mm 0.00 in0.0 mm
02:20 PM 61.8°F16.6°C 55.2°F12.9°C 79% Calm Calm -- 30.07 in1018.3 mb - 0.00 in0.0 mm 0.00 in0.0 mm
02:30 PM 62.1°F16.7°C 54.8°F12.7°C 77% 3.5 mph WSW5.6 kmh WSW 4.6 mph7.4 kmh 30.07 in1018.3 mb - 0.00 in0.0 mm 0.00 in0.0 mm
02:40 PM 62.2°F16.8°C 54.9°F12.7°C 77% 2.3 mph WSW3.7 kmh WSW 3.5 mph5.6 kmh 30.07 in1018.3 mb - 0.00 in0.0 mm 0.00 in0.0 mm
02:50 PM 62.0°F16.7°C 55.0°F12.8°C 78% 3.5 mph W5.6 kmh W 8.1 mph13.0 kmh 30.07 in1018.3 mb - 0.00 in0.0 mm 0.00 in0.0 mm
03:00 PM 61.7°F16.5°C 54.4°F12.4°C 77% 3.5 mph NNW5.6 kmh NNW 4.6 mph7.4 kmh 30.07 in1018.3 mb - 0.00 in0.0 mm 0.00 in0.0 mm
03:10 PM 61.6°F16.4°C 54.6°F12.6°C 78% 6.9 mph WSW11.1 kmh WSW 10.4 mph16.7 kmh 30.07 in1018.3 mb - 0.00 in0.0 mm 0.00 in0.0 mm
03:20 PM 61.4°F16.3°C 54.5°F12.5°C 78% 2.3 mph WSW3.7 kmh WSW 4.6 mph7.4 kmh 30.07 in1018.3 mb - 0.00 in0.0 mm 0.00 in0.0 mm
03:30 PM 61.6°F16.4°C 55.0°F12.8°C 79% 2.3 mph NW3.7 kmh NW 6.9 mph11.1 kmh 30.07 in1018.3 mb - 0.00 in0.0 mm 0.00 in0.0 mm
03:40 PM 61.7°F16.5°C 55.1°F12.8°C 79% Calm Calm 4.6 mph7.4 kmh 30.07 in1018.3 mb - 0.00 in0.0 mm 0.00 in0.0 mm
03:50 PM 61.5°F16.4°C 54.9°F12.7°C 79% 2.3 mph NW3.7 kmh NW 3.5 mph5.6 kmh 30.07 in1018.3 mb - 0.00 in0.0 mm 0.00 in0.0 mm
04:00 PM 61.3°F16.3°C 54.4°F12.4°C 78% 3.5 mph WNW5.6 kmh WNW 4.6 mph7.4 kmh 30.07 in1018.3 mb - 0.00 in0.0 mm 0.00 in0.0 mm
04:10 PM 61.1°F16.2°C 54.5°F12.5°C 79% 3.5 mph WSW5.6 kmh WSW 5.8 mph9.3 kmh 30.07 in1018.3 mb - 0.00 in0.0 mm 0.00 in0.0 mm
04:20 PM 60.6°F15.9°C 54.4°F12.4°C 80% 2.3 mph WSW3.7 kmh WSW 3.5 mph5.6 kmh 30.07 in1018.3 mb - 0.00 in0.0 mm 0.00 in0.0 mm
04:30 PM 60.4°F15.8°C 54.2°F12.3°C 80% Calm Calm -- 30.07 in1018.3 mb - 0.00 in0.0 mm 0.00 in0.0 mm
04:40 PM 60.0°F15.6°C 53.8°F12.1°C 80% Calm Calm -- 30.08 in1018.6 mb - 0.00 in0.0 mm 0.00 in0.0 mm
04:50 PM 59.9°F15.5°C 54.1°F12.3°C 81% 2.3 mph NW3.7 kmh NW 2.3 mph3.7 kmh 30.08 in1018.6 mb - 0.00 in0.0 mm 0.00 in0.0 mm
05:00 PM 59.7°F15.4°C 53.9°F12.2°C 81% Calm Calm 1.2 mph1.9 kmh 30.08 in1018.6 mb - 0.00 in0.0 mm 0.00 in0.0 mm
05:10 PM 59.2°F15.1°C 53.4°F11.9°C 81% 1.2 mph NW1.9 kmh NW 3.5 mph5.6 kmh 30.08 in1018.6 mb - 0.00 in0.0 mm 0.00 in0.0 mm
05:20 PM 58.8°F14.9°C 53.3°F11.8°C 82% Calm Calm -- 30.08 in1018.6 mb - 0.00 in0.0 mm 0.00 in0.0 mm
05:30 PM 57.9°F14.4°C 52.8°F11.6°C 83% 1.2 mph W1.9 kmh W 3.5 mph5.6 kmh 30.08 in1018.6 mb - 0.00 in0.0 mm 0.00 in0.0 mm
05:40 PM 56.6°F13.7°C 52.2°F11.2°C 85% 3.5 mph WSW5.6 kmh WSW 3.5 mph5.6 kmh 30.08 in1018.6 mb - 0.00 in0.0 mm 0.00 in0.0 mm
05:50 PM 56.0°F13.3°C 52.2°F11.2°C 87% Calm Calm -- 30.08 in1018.6 mb - 0.00 in0.0 mm 0.00 in0.0 mm
06:00 PM 55.6°F13.1°C 51.8°F11.0°C 87% Calm Calm -- 30.09 in1019.0 mb - 0.00 in0.0 mm 0.00 in0.0 mm
06:10 PM 55.3°F12.9°C 51.5°F10.8°C 87% Calm Calm -- 30.09 in1019.0 mb - 0.00 in0.0 mm 0.00 in0.0 mm
06:20 PM 54.6°F12.6°C 51.2°F10.7°C 88% Calm Calm -- 30.09 in1019.0 mb - 0.00 in0.0 mm 0.00 in0.0 mm
06:30 PM 54.4°F12.4°C 51.2°F10.7°C 89% Calm Calm -- 30.09 in1019.0 mb - 0.00 in0.0 mm 0.00 in0.0 mm
06:40 PM 54.0°F12.2°C 51.1°F10.6°C 90% Calm Calm -- 30.09 in1019.0 mb - 0.00 in0.0 mm 0.00 in0.0 mm
06:50 PM 53.9°F12.2°C 51.1°F10.6°C 90% Calm Calm -- 30.10 in1019.3 mb - 0.00 in0.0 mm 0.00 in0.0 mm
07:00 PM 53.5°F11.9°C 50.7°F10.4°C 90% Calm Calm -- 30.10 in1019.3 mb - 0.00 in0.0 mm 0.00 in0.0 mm
07:10 PM 53.1°F11.7°C 50.5°F10.3°C 91% Calm Calm -- 30.11 in1019.6 mb - 0.00 in0.0 mm 0.00 in0.0 mm
07:20 PM 53.3°F11.8°C 51.1°F10.6°C 92% Calm Calm -- 30.10 in1019.3 mb - 0.00 in0.0 mm 0.00 in0.0 mm
07:30 PM 53.1°F11.7°C 50.5°F10.3°C 91% Calm Calm -- 30.10 in1019.3 mb - 0.00 in0.0 mm 0.00 in0.0 mm
07:40 PM 52.8°F11.6°C 50.5°F10.3°C 92% Calm Calm -- 30.10 in1019.3 mb - 0.00 in0.0 mm 0.00 in0.0 mm
07:50 PM 52.5°F11.4°C 50.2°F10.1°C 92% 3.5 mph WSW5.6 kmh WSW 3.5 mph5.6 kmh 30.10 in1019.3 mb - 0.00 in0.0 mm 0.00 in0.0 mm
08:00 PM 52.6°F11.4°C 50.3°F10.2°C 92% 3.5 mph WSW5.6 kmh WSW 3.5 mph5.6 kmh 30.11 in1019.6 mb - 0.00 in0.0 mm 0.00 in0.0 mm
08:10 PM 52.8°F11.6°C 50.8°F10.4°C 93% 1.2 mph WSW1.9 kmh WSW 3.5 mph5.6 kmh 30.11 in1019.6 mb - 0.00 in0.0 mm 0.00 in0.0 mm
08:20 PM 52.7°F11.5°C 50.4°F10.2°C 92% Calm Calm -- 30.11 in1019.6 mb - 0.00 in0.0 mm 0.00 in0.0 mm
08:30 PM 52.5°F11.4°C 50.5°F10.3°C 93% Calm Calm -- 30.11 in1019.6 mb - 0.00 in0.0 mm 0.00 in0.0 mm
08:40 PM 52.4°F11.3°C 50.4°F10.2°C 93% Calm Calm -- 30.11 in1019.6 mb - 0.00 in0.0 mm 0.00 in0.0 mm
08:50 PM 52.1°F11.2°C 50.1°F10.1°C 93% 2.3 mph WSW3.7 kmh WSW 3.5 mph5.6 kmh 30.11 in1019.6 mb - 0.00 in0.0 mm 0.00 in0.0 mm
09:00 PM 52.0°F11.1°C 50.1°F10.1°C 93% 2.3 mph WSW3.7 kmh WSW 2.3 mph3.7 kmh 30.11 in1019.6 mb - 0.00 in0.0 mm 0.00 in0.0 mm
09:10 PM 51.9°F11.1°C 50.0°F10.0°C 93% Calm Calm 1.2 mph1.9 kmh 30.11 in1019.6 mb - 0.01 in0.3 mm 0.01 in0.3 mm
09:20 PM 52.1°F11.2°C 50.1°F10.1°C 93% 2.3 mph WSW3.7 kmh WSW 2.3 mph3.7 kmh 30.11 in1019.6 mb - 0.00 in0.0 mm 0.01 in0.3 mm
09:30 PM 51.8°F11.0°C 49.8°F9.9°C 93% Calm Calm -- 30.11 in1019.6 mb - 0.00 in0.0 mm 0.01 in0.3 mm
09:40 PM 51.9°F11.1°C 49.9°F9.9°C 93% Calm Calm -- 30.11 in1019.6 mb - 0.00 in0.0 mm 0.01 in0.3 mm
09:50 PM 51.7°F10.9°C 49.7°F9.8°C 93% Calm Calm -- 30.12 in1020.0 mb - 0.00 in0.0 mm 0.01 in0.3 mm
10:00 PM 51.5°F10.8°C 49.5°F9.7°C 93% Calm Calm -- 30.11 in1019.6 mb - 0.00 in0.0 mm 0.01 in0.3 mm
10:10 PM 51.3°F10.7°C 49.3°F9.6°C 93% Calm Calm -- 30.11 in1019.6 mb - 0.00 in0.0 mm 0.01 in0.3 mm
10:20 PM 51.3°F10.7°C 49.6°F9.8°C 94% Calm Calm -- 30.11 in1019.6 mb - 0.00 in0.0 mm 0.01 in0.3 mm
10:30 PM 51.6°F10.9°C 49.9°F9.9°C 94% Calm Calm -- 30.11 in1019.6 mb - 0.00 in0.0 mm 0.01 in0.3 mm
10:40 PM 51.5°F10.8°C 49.8°F9.9°C 94% Calm Calm -- 30.11 in1019.6 mb - 0.00 in0.0 mm 0.01 in0.3 mm
10:50 PM 51.2°F10.7°C 49.2°F9.6°C 93% Calm Calm -- 30.11 in1019.6 mb - 0.00 in0.0 mm 0.01 in0.3 mm
11:00 PM 51.0°F10.6°C 49.4°F9.7°C 94% Calm Calm -- 30.11 in1019.6 mb - 0.00 in0.0 mm 0.01 in0.3 mm
11:10 PM 51.0°F10.6°C 49.3°F9.6°C 94% Calm Calm -- 30.11 in1019.6 mb - 0.00 in0.0 mm 0.01 in0.3 mm
11:20 PM 51.0°F10.6°C 49.3°F9.6°C 94% Calm Calm -- 30.11 in1019.6 mb - 0.00 in0.0 mm 0.01 in0.3 mm
11:30 PM 50.8°F10.4°C 49.2°F9.6°C 94% Calm Calm -- 30.11 in1019.6 mb - 0.00 in0.0 mm 0.01 in0.3 mm
11:40 PM 51.2°F10.7°C 49.6°F9.8°C 94% Calm Calm -- 30.11 in1019.6 mb - 0.00 in0.0 mm 0.01 in0.3 mm
11:50 PM 51.4°F10.8°C 49.7°F9.8°C 94% Calm Calm -- 30.11 in1019.6 mb - 0.00 in0.0 mm 0.01 in0.3 mm